createdAt,value
2022-09-05T00:03:02.614Z,12.25
2022-09-05T00:06:21.037Z,6.22
2022-09-05T00:10:03.625Z,9.25
2022-09-05T00:13:14.024Z,8.55
2022-09-05T00:16:47.447Z,8.00
2022-09-05T00:23:21.490Z,9.78
2022-09-05T00:24:35.329Z,8.23
2022-09-05T00:27:34.765Z,8.83
2022-09-05T00:31:07.376Z,13.38
2022-09-05T00:34:14.546Z,15.72
2022-09-05T00:37:24.523Z,20.45
2022-09-05T00:41:03.857Z,30.80
2022-09-05T00:44:10.651Z,27.58
2022-09-05T00:47:42.639Z,30.50
2022-09-05T00:50:53.724Z,36.05
2022-09-05T00:54:16.091Z,33.90
2022-09-05T00:57:49.433Z,28.07
2022-09-05T01:01:02.849Z,23.25
2022-09-05T01:04:32.635Z,17.60
2022-09-05T01:08:02.132Z,13.65
2022-09-05T01:11:21.369Z,14.83
2022-09-05T01:14:42.233Z,14.87
2022-09-05T01:18:26.451Z,16.90
2022-09-05T01:21:54.942Z,11.70
2022-09-05T01:25:25.163Z,15.03
2022-09-05T01:29:17.907Z,10.23
2022-09-05T01:32:27.530Z,8.43
2022-09-05T01:36:12.253Z,8.98
2022-09-05T01:40:11.394Z,8.38
2022-09-05T01:42:57.558Z,10.00
2022-09-05T01:46:37.628Z,11.45
2022-09-05T01:50:05.146Z,11.18
2022-09-05T01:53:36.551Z,10.20
2022-09-05T01:57:06.260Z,9.48
2022-09-05T02:00:38.648Z,11.65
2022-09-05T02:04:22.012Z,10.32
2022-09-05T02:07:45.374Z,10.20
2022-09-05T02:11:02.519Z,9.18
2022-09-05T02:14:13.197Z,14.00
2022-09-05T02:17:51.199Z,11.30
2022-09-05T02:20:59.418Z,10.53
2022-09-05T02:24:20.450Z,7.30
2022-09-05T02:28:04.292Z,10.60
2022-09-05T02:31:08.170Z,7.62
2022-09-05T02:34:07.556Z,6.95
2022-09-05T02:38:51.032Z,9.18
2022-09-05T02:45:10.556Z,6.00
2022-09-05T02:45:13.702Z,8.08
2022-09-05T02:47:44.712Z,6.85
2022-09-05T02:56:55.183Z,8.33
2022-09-05T02:57:34.203Z,10.35
2022-09-05T02:58:13.903Z,7.60
2022-09-05T03:01:29.576Z,9.68
2022-09-05T03:04:45.842Z,7.33
2022-09-05T03:08:17.207Z,8.70
2022-09-05T03:12:08.499Z,10.18
2022-09-05T03:15:45.072Z,7.53
2022-09-05T03:19:47.031Z,8.08
2022-09-05T03:22:59.599Z,10.90
2022-09-05T03:26:46.778Z,6.47
2022-09-05T03:30:01.560Z,6.87
2022-09-05T03:33:40.806Z,7.65
2022-09-05T03:37:14.876Z,6.92
2022-09-05T03:41:03.230Z,7.30
2022-09-05T03:44:29.678Z,4.85
2022-09-05T03:48:27.771Z,4.87
2022-09-05T03:57:08.731Z,8.75
2022-09-05T03:57:28.230Z,7.47
2022-09-05T03:59:02.094Z,6.35
2022-09-05T04:04:00.308Z,10.32
2022-09-05T04:08:24.665Z,8.08
2022-09-05T04:08:42.064Z,8.80
2022-09-05T04:11:58.270Z,17.87
2022-09-05T04:15:20.546Z,11.18
2022-09-05T04:18:45.791Z,6.12
2022-09-05T04:21:50.872Z,7.33
2022-09-05T04:25:16.375Z,7.25
2022-09-05T04:28:37.233Z,8.85
2022-09-05T04:32:17.809Z,5.90
2022-09-05T04:35:38.209Z,6.22
2022-09-05T04:38:52.832Z,4.28
2022-09-05T04:42:22.692Z,6.85
2022-09-05T04:45:28.619Z,6.15
2022-09-05T04:48:45.264Z,7.40
2022-09-05T04:52:24.089Z,4.22
2022-09-05T04:55:24.598Z,2.30
2022-09-05T05:01:58.960Z,8.25
2022-09-05T05:06:00.769Z,4.37
2022-09-05T05:06:09.582Z,4.78
2022-09-05T05:08:38.931Z,4.47
2022-09-05T05:17:54.345Z,2.90
2022-09-05T05:18:06.881Z,3.55
2022-09-05T05:18:56.525Z,8.95
2022-09-05T05:21:51.870Z,9.90
2022-09-05T05:25:06.898Z,4.40
2022-09-05T05:28:27.827Z,6.95
2022-09-05T05:31:45.102Z,5.65
2022-09-05T05:34:58.343Z,5.28
2022-09-05T05:38:30.582Z,7.33
2022-09-05T05:41:41.844Z,6.92
2022-09-05T05:44:49.179Z,8.28
2022-09-05T05:48:02.070Z,7.53
2022-09-05T05:51:47.540Z,7.78
2022-09-05T05:55:45.239Z,9.13
2022-09-05T05:58:43.251Z,7.87
2022-09-05T06:02:27.664Z,7.55
2022-09-05T06:06:10.142Z,10.10
2022-09-05T06:14:47.863Z,7.92
2022-09-05T06:14:57.994Z,8.25
2022-09-05T06:17:40.743Z,12.10
2022-09-05T06:22:10.742Z,11.97
2022-09-05T06:25:39.278Z,9.70
2022-09-05T06:29:09.434Z,10.75
2022-09-05T06:35:45.619Z,11.57
2022-09-05T06:39:17.370Z,10.65
2022-09-05T06:42:43.232Z,8.48
2022-09-05T06:45:58.879Z,8.08
2022-09-05T06:49:33.477Z,7.37
2022-09-05T06:53:30.097Z,8.23
2022-09-05T06:56:33.052Z,9.65
2022-09-05T07:00:35.833Z,10.90
2022-09-05T07:04:33.353Z,13.25
2022-09-05T07:10:52.979Z,10.15
2022-09-05T07:14:11.809Z,12.07
2022-09-05T07:17:53.545Z,10.82
2022-09-05T07:21:17.411Z,11.83
2022-09-05T07:24:53.212Z,8.15
2022-09-05T07:28:28.395Z,10.35
2022-09-05T07:31:09.624Z,8.85
2022-09-05T07:34:41.088Z,9.63
2022-09-05T07:37:51.329Z,8.90
2022-09-05T07:41:16.094Z,11.30
2022-09-05T07:44:40.534Z,8.95
2022-09-05T07:47:48.070Z,8.63
2022-09-05T07:52:21.105Z,10.70
2022-09-05T07:57:03.983Z,8.75
2022-09-05T07:57:50.850Z,4.70
2022-09-05T08:00:49.874Z,4.30
2022-09-05T08:03:55.651Z,11.63
2022-09-05T08:07:47.021Z,4.55
2022-09-05T08:10:15.795Z,5.35
2022-09-05T08:16:32.120Z,12.10
2022-09-05T08:20:21.194Z,5.17
2022-09-05T08:24:13.274Z,13.98
2022-09-05T08:27:38.706Z,4.97
2022-09-05T08:30:47.294Z,6.22
2022-09-05T08:33:54.982Z,7.80
2022-09-05T08:37:05.265Z,4.35
2022-09-05T08:40:18.756Z,5.97
2022-09-05T08:46:38.032Z,3.52
2022-09-05T08:47:45.436Z,5.40
2022-09-05T08:51:11.800Z,7.17
2022-09-05T08:54:49.811Z,6.08
2022-09-05T08:58:15.648Z,4.90
2022-09-05T09:01:44.542Z,3.90
2022-09-05T09:05:22.071Z,5.78
2022-09-05T09:09:05.358Z,11.75
2022-09-05T09:12:22.790Z,3.72
2022-09-05T09:15:35.371Z,4.80
2022-09-05T09:19:08.057Z,7.87
2022-09-05T09:22:50.103Z,7.20
2022-09-05T09:26:06.797Z,2.80
2022-09-05T09:29:22.993Z,4.65
2022-09-05T09:32:45.861Z,4.72
2022-09-05T09:36:07.709Z,8.08
2022-09-05T09:39:37.790Z,2.90
2022-09-05T09:43:06.778Z,7.00
2022-09-05T09:46:34.021Z,2.95
2022-09-05T09:49:51.134Z,3.58
2022-09-05T09:53:22.223Z,4.22
2022-09-05T09:56:48.996Z,6.10
2022-09-05T10:00:27.865Z,8.45
2022-09-05T10:10:23.317Z,5.40
2022-09-05T10:10:47.950Z,6.22
2022-09-05T10:10:57.760Z,5.37
2022-09-05T10:14:49.287Z,7.62
2022-09-05T10:18:12.943Z,12.80
2022-09-05T10:21:44.951Z,2.17
2022-09-05T10:25:37.553Z,2.65
2022-09-05T10:28:51.443Z,7.95
2022-09-05T10:35:10.322Z,3.55
2022-09-05T10:35:48.676Z,3.33
2022-09-05T10:39:00.656Z,2.50
2022-09-05T10:42:23.704Z,4.60
2022-09-05T10:45:38.929Z,2.90
2022-09-05T10:48:56.352Z,4.20
2022-09-05T10:52:18.523Z,3.62
2022-09-05T10:56:05.136Z,2.65
2022-09-05T11:02:16.413Z,3.33
2022-09-05T11:02:42.396Z,4.25
2022-09-05T11:05:54.414Z,2.22
2022-09-05T11:09:23.146Z,4.47
2022-09-05T11:12:57.766Z,3.22
2022-09-05T11:16:46.036Z,2.92
2022-09-05T11:20:00.182Z,4.25
2022-09-05T11:23:05.799Z,5.08
2022-09-05T11:26:15.754Z,3.58
2022-09-05T11:29:24.826Z,2.10
2022-09-05T11:38:16.546Z,1.93
2022-09-05T11:40:08.285Z,3.35
2022-09-05T11:40:31.357Z,1.70
2022-09-05T11:43:30.483Z,2.58
2022-09-05T11:47:27.218Z,2.58
2022-09-05T11:50:32.327Z,17.45
2022-09-05T11:54:02.190Z,2.42
2022-09-05T11:57:33.302Z,2.77
2022-09-05T12:01:38.332Z,3.00
2022-09-05T12:05:48.857Z,2.52
2022-09-05T12:08:50.303Z,5.28
2022-09-05T12:12:40.966Z,1.30
2022-09-05T12:15:52.066Z,3.05
2022-09-05T12:18:44.777Z,4.55
2022-09-05T12:22:10.267Z,2.55
2022-09-05T12:29:27.370Z,3.17
2022-09-05T12:33:32.758Z,3.75
2022-09-05T12:36:10.278Z,5.45
2022-09-05T12:41:33.997Z,4.25
2022-09-05T12:42:08.623Z,4.80
2022-09-05T12:42:27.833Z,3.25
2022-09-05T12:45:39.491Z,2.10
2022-09-05T12:49:04.609Z,5.15
2022-09-05T12:55:38.155Z,1.80
2022-09-05T13:02:57.553Z,2.52
2022-09-05T13:03:02.329Z,1.12
2022-09-05T13:05:05.950Z,2.77
2022-09-05T13:08:12.805Z,1.67
2022-09-05T13:14:48.062Z,5.78
2022-09-05T13:14:53.083Z,7.55
2022-09-05T13:17:59.950Z,2.33
2022-09-05T13:21:14.941Z,3.30
2022-09-05T13:24:29.331Z,3.27
2022-09-05T13:27:40.077Z,1.65
2022-09-05T13:34:50.715Z,2.58
2022-09-05T13:38:01.202Z,2.80
2022-09-05T13:38:17.620Z,1.67
2022-09-05T13:40:42.383Z,4.53
2022-09-05T13:43:42.522Z,3.17
2022-09-05T13:46:45.125Z,3.72
2022-09-05T13:49:47.426Z,5.53
2022-09-05T13:52:56.758Z,3.22
2022-09-05T13:56:07.315Z,1.92
2022-09-05T13:59:26.458Z,2.37
2022-09-05T14:06:36.615Z,4.58
2022-09-05T14:09:50.893Z,5.08
2022-09-05T14:13:05.694Z,10.70
2022-09-05T14:16:18.655Z,1.15
2022-09-05T14:19:49.924Z,3.95
2022-09-05T14:23:09.565Z,6.53
2022-09-05T14:26:16.486Z,6.83
2022-09-05T14:29:42.949Z,2.67
2022-09-05T14:37:40.947Z,5.08
2022-09-05T14:37:52.208Z,2.85
2022-09-05T14:40:30.757Z,4.03
2022-09-05T14:43:37.553Z,4.45
2022-09-05T14:47:35.074Z,2.00
2022-09-05T14:50:55.623Z,3.20
2022-09-05T15:02:38.684Z,4.83
2022-09-05T15:02:55.256Z,2.37
2022-09-05T15:12:18.010Z,2.87
2022-09-05T15:13:46.339Z,5.75
2022-09-05T15:16:54.999Z,4.67
2022-09-05T15:20:11.751Z,4.87
2022-09-05T15:23:26.273Z,5.70
2022-09-05T15:26:35.929Z,3.90
2022-09-05T15:29:49.454Z,4.93
2022-09-05T15:32:55.282Z,2.85
2022-09-05T15:36:01.174Z,2.25
2022-09-05T15:39:11.751Z,5.55
2022-09-05T15:42:34.217Z,4.25
2022-09-05T15:45:52.839Z,3.47
2022-09-05T15:48:58.530Z,3.30
2022-09-05T15:52:06.184Z,2.65
2022-09-05T15:55:24.684Z,2.77
2022-09-05T15:58:35.954Z,4.30
2022-09-05T16:01:59.948Z,6.80
2022-09-05T16:10:28.190Z,1.50
2022-09-05T16:10:38.256Z,6.03
2022-09-05T16:15:53.506Z,8.13
2022-09-05T16:23:17.036Z,6.22
2022-09-05T16:23:32.504Z,5.35
2022-09-05T16:24:58.465Z,19.32
2022-09-05T16:28:13.949Z,12.35
2022-09-05T16:31:53.411Z,13.03
2022-09-05T16:35:17.110Z,10.85
2022-09-05T16:38:49.911Z,10.65
2022-09-05T16:42:00.108Z,14.78
2022-09-05T16:45:10.630Z,19.35
2022-09-05T16:48:44.481Z,6.85
2022-09-05T16:52:06.587Z,9.95
2022-09-05T16:55:34.365Z,18.55
2022-09-05T16:59:03.639Z,13.13
2022-09-05T17:02:38.117Z,11.48
2022-09-05T17:05:56.646Z,24.87
2022-09-05T17:09:12.980Z,17.02
2022-09-05T17:12:08.949Z,16.65
2022-09-05T17:15:19.489Z,22.00
2022-09-05T17:18:31.801Z,11.80
2022-09-05T17:27:31.829Z,17.62
2022-09-05T17:29:34.490Z,15.35
2022-09-05T17:31:50.898Z,17.35
2022-09-05T17:34:32.364Z,22.25
2022-09-05T17:38:11.010Z,16.52
2022-09-05T17:44:47.972Z,18.98
2022-09-05T17:48:07.066Z,17.12
2022-09-05T17:51:12.288Z,19.45
2022-09-05T17:54:24.845Z,15.85
2022-09-05T17:57:48.380Z,17.98
2022-09-05T18:01:04.216Z,17.62
2022-09-05T18:04:17.636Z,18.60
2022-09-05T18:10:30.610Z,21.55
2022-09-05T18:13:36.580Z,19.05
2022-09-05T18:17:35.974Z,24.63
2022-09-05T18:20:07.387Z,19.62
2022-09-05T18:23:39.449Z,24.00
2022-09-05T18:26:43.354Z,22.58
2022-09-05T18:29:58.206Z,21.73
2022-09-05T18:33:56.385Z,22.22
2022-09-05T18:36:33.533Z,18.52
2022-09-05T18:39:53.030Z,21.42
2022-09-05T18:43:10.577Z,19.77
2022-09-05T18:46:13.766Z,21.52
2022-09-05T18:50:24.634Z,19.60
2022-09-05T18:53:09.060Z,27.37
2022-09-05T18:57:02.982Z,23.45
2022-09-05T18:59:51.532Z,22.98
2022-09-05T19:03:03.978Z,25.95
2022-09-05T19:06:36.716Z,25.80
2022-09-05T19:09:26.667Z,29.23
2022-09-05T19:12:33.116Z,25.08
2022-09-05T19:15:41.119Z,27.77
2022-09-05T19:18:48.637Z,25.62
2022-09-05T19:22:39.527Z,29.45
2022-09-05T19:25:15.151Z,23.30
2022-09-05T19:36:50.010Z,24.72
2022-09-05T19:36:54.779Z,24.15
2022-09-05T19:37:09.247Z,26.48
2022-09-05T19:38:16.012Z,29.25
2022-09-05T19:47:25.257Z,28.77
2022-09-05T19:47:39.124Z,27.77
2022-09-05T19:48:07.674Z,26.20
2022-09-05T19:51:16.830Z,26.70
2022-09-05T19:54:19.067Z,25.32
2022-09-05T19:57:31.574Z,28.87
2022-09-05T20:00:32.982Z,26.40
2022-09-05T20:03:39.910Z,26.40
2022-09-05T20:06:45.048Z,27.82
2022-09-05T20:09:58.256Z,36.50
2022-09-05T20:13:03.203Z,26.37
2022-09-05T20:16:08.616Z,26.10
2022-09-05T20:19:14.444Z,22.13
2022-09-05T20:22:47.597Z,23.35
2022-09-05T20:25:56.593Z,23.30
2022-09-05T20:29:02.976Z,22.85
2022-09-05T20:32:08.881Z,20.92
2022-09-05T20:38:00.637Z,23.60
2022-09-05T20:43:18.017Z,20.20
2022-09-05T20:43:29.087Z,20.65
2022-09-05T20:44:47.969Z,22.82
2022-09-05T20:54:05.522Z,22.37
2022-09-05T20:54:32.109Z,24.20
2022-09-05T20:57:32.020Z,21.07
2022-09-05T21:00:38.617Z,18.37
2022-09-05T21:03:46.191Z,23.15
2022-09-05T21:06:53.975Z,17.73
2022-09-05T21:10:13.988Z,16.60
2022-09-05T21:13:20.409Z,19.42
2022-09-05T21:16:31.697Z,19.02
2022-09-05T21:19:53.536Z,18.17
2022-09-05T21:22:57.883Z,16.60
2022-09-05T21:26:08.824Z,19.02
2022-09-05T21:29:27.217Z,19.32
2022-09-05T21:32:38.263Z,20.70
2022-09-05T21:35:39.048Z,21.90
2022-09-05T21:38:55.445Z,18.25
2022-09-05T21:42:06.471Z,27.02
2022-09-05T21:47:48.739Z,21.70
2022-09-05T21:48:17.123Z,24.15
2022-09-05T21:51:28.976Z,24.77
2022-09-05T21:59:20.899Z,20.08
2022-09-05T21:59:33.206Z,22.15
2022-09-05T22:00:56.709Z,23.02
2022-09-05T22:04:04.405Z,30.62
2022-09-05T22:07:11.957Z,26.75
2022-09-05T22:10:19.048Z,25.85
2022-09-05T22:13:25.465Z,24.32
2022-09-05T22:16:31.641Z,28.60
2022-09-05T22:19:40.203Z,20.57
2022-09-05T22:22:46.860Z,24.75
2022-09-05T22:25:51.360Z,31.48
2022-09-05T22:28:56.329Z,28.30
2022-09-05T22:32:02.933Z,25.88
2022-09-05T22:35:27.490Z,28.07
2022-09-05T22:38:21.489Z,23.35
2022-09-05T22:41:30.301Z,26.27
2022-09-05T22:44:33.662Z,26.33
2022-09-05T22:47:39.465Z,29.07
2022-09-05T22:50:44.866Z,34.05
2022-09-05T22:53:50.072Z,29.42
2022-09-05T22:56:57.244Z,28.42
2022-09-05T23:00:03.532Z,27.17
2022-09-05T23:03:14.082Z,28.90
2022-09-05T23:06:22.525Z,28.52
2022-09-05T23:09:28.802Z,28.77
2022-09-05T23:12:35.494Z,36.23
2022-09-05T23:15:42.366Z,24.70
2022-09-05T23:18:49.367Z,27.22
2022-09-05T23:21:55.965Z,30.77
2022-09-05T23:25:02.557Z,32.78
2022-09-05T23:28:08.326Z,36.90
2022-09-05T23:31:17.103Z,34.50
2022-09-05T23:34:23.523Z,35.28
2022-09-05T23:37:29.657Z,27.58
2022-09-05T23:40:36.489Z,28.32
2022-09-05T23:43:42.380Z,30.57
2022-09-05T23:46:47.838Z,28.20
2022-09-05T23:49:54.780Z,34.48
2022-09-05T23:53:01.992Z,31.40
2022-09-05T23:56:08.553Z,26.65
2022-09-05T23:59:14.642Z,29.55
